Guarinos, Brazil
Current Conditions -  °F | °C
As of 2:00 AM on Tuesday 21 Oct 2014 (Local Time) from SBAN Reporting Station
Few Clouds Few Clouds  
Wind Chill: 68°   Ceiling: Unl
Heat Index: 68°   Visibility: 6mi
Dew Point: 61°   Wind: 8mph
Humidity: 78%   Direction: 170°S
Pressure: 30.03"   Gusts: NA
Location:  14.65°S, 49.73°W
Report Text: SBAN 210500Z 17007KT 9999 FEW030 20/16 Q1017
Loading
Personal Weather Stations






























Interactive Weather Map
Tropical Storm Tracking
New forecast layout! Learn more

10-Day Weather Forecast

Advertisements
Track Severe Weather on mobile